sensor_id;sensor_type;location;lat;lon;timestamp;P1;durP1;ratioP1;P2;durP2;ratioP2
43919;SDS011;29578;51.946;5.874;2022-11-24T00:01:28;3.75;;;1.05;;
43919;SDS011;29578;51.946;5.874;2022-11-24T00:03:56;1.98;;;1.05;;
43919;SDS011;29578;51.946;5.874;2022-11-24T00:06:23;2.08;;;0.80;;
43919;SDS011;29578;51.946;5.874;2022-11-24T00:08:49;2.10;;;0.70;;
43919;SDS011;29578;51.946;5.874;2022-11-24T00:11:17;1.77;;;0.50;;
43919;SDS011;29578;51.946;5.874;2022-11-24T00:13:44;2.42;;;0.85;;
43919;SDS011;29578;51.946;5.874;2022-11-24T00:16:14;2.75;;;0.80;;
43919;SDS011;29578;51.946;5.874;2022-11-24T00:18:43;1.88;;;0.88;;
43919;SDS011;29578;51.946;5.874;2022-11-24T00:21:11;3.78;;;0.93;;
43919;SDS011;29578;51.946;5.874;2022-11-24T00:23:38;2.35;;;0.68;;
43919;SDS011;29578;51.946;5.874;2022-11-24T00:26:05;2.60;;;0.73;;
43919;SDS011;29578;51.946;5.874;2022-11-24T00:28:32;1.55;;;0.90;;
43919;SDS011;29578;51.946;5.874;2022-11-24T00:30:59;1.05;;;0.43;;
43919;SDS011;29578;51.946;5.874;2022-11-24T00:33:25;2.40;;;0.55;;
43919;SDS011;29578;51.946;5.874;2022-11-24T00:35:55;1.40;;;0.77;;
43919;SDS011;29578;51.946;5.874;2022-11-24T00:38:21;2.15;;;0.90;;
43919;SDS011;29578;51.946;5.874;2022-11-24T00:40:47;3.58;;;0.85;;
43919;SDS011;29578;51.946;5.874;2022-11-24T00:43:12;2.47;;;0.82;;
43919;SDS011;29578;51.946;5.874;2022-11-24T00:45:38;2.70;;;1.00;;
43919;SDS011;29578;51.946;5.874;2022-11-24T00:48:04;4.20;;;1.05;;
43919;SDS011;29578;51.946;5.874;2022-11-24T00:50:30;3.00;;;1.10;;
43919;SDS011;29578;51.946;5.874;2022-11-24T00:52:55;2.50;;;0.98;;
43919;SDS011;29578;51.946;5.874;2022-11-24T00:55:21;2.08;;;0.90;;
43919;SDS011;29578;51.946;5.874;2022-11-24T00:57:47;4.60;;;1.13;;
43919;SDS011;29578;51.946;5.874;2022-11-24T01:00:12;1.55;;;0.75;;
43919;SDS011;29578;51.946;5.874;2022-11-24T01:02:38;3.45;;;1.17;;
43919;SDS011;29578;51.946;5.874;2022-11-24T01:05:04;2.67;;;0.90;;
43919;SDS011;29578;51.946;5.874;2022-11-24T01:07:30;4.50;;;1.30;;
43919;SDS011;29578;51.946;5.874;2022-11-24T01:09:56;3.67;;;0.90;;
43919;SDS011;29578;51.946;5.874;2022-11-24T01:12:21;2.88;;;0.80;;
43919;SDS011;29578;51.946;5.874;2022-11-24T01:14:47;1.65;;;0.80;;
43919;SDS011;29578;51.946;5.874;2022-11-24T01:17:13;2.47;;;1.05;;
43919;SDS011;29578;51.946;5.874;2022-11-24T01:19:38;2.22;;;0.70;;
43919;SDS011;29578;51.946;5.874;2022-11-24T01:22:04;1.05;;;0.50;;
43919;SDS011;29578;51.946;5.874;2022-11-24T01:24:30;4.07;;;0.73;;
43919;SDS011;29578;51.946;5.874;2022-11-24T01:26:55;1.38;;;0.57;;
43919;SDS011;29578;51.946;5.874;2022-11-24T01:29:21;1.27;;;0.70;;
43919;SDS011;29578;51.946;5.874;2022-11-24T01:31:47;1.75;;;0.80;;
43919;SDS011;29578;51.946;5.874;2022-11-24T01:34:13;1.10;;;0.80;;
43919;SDS011;29578;51.946;5.874;2022-11-24T01:36:38;3.40;;;0.73;;
43919;SDS011;29578;51.946;5.874;2022-11-24T01:39:04;1.38;;;0.50;;
43919;SDS011;29578;51.946;5.874;2022-11-24T01:41:30;1.05;;;0.63;;
43919;SDS011;29578;51.946;5.874;2022-11-24T01:43:57;2.33;;;0.75;;
43919;SDS011;29578;51.946;5.874;2022-11-24T01:46:26;1.70;;;0.70;;
43919;SDS011;29578;51.946;5.874;2022-11-24T01:49:02;1.33;;;0.73;;
43919;SDS011;29578;51.946;5.874;2022-11-24T01:51:47;1.85;;;0.70;;
43919;SDS011;29578;51.946;5.874;2022-11-24T01:54:19;2.47;;;0.98;;
43919;SDS011;29578;51.946;5.874;2022-11-24T01:56:52;1.80;;;0.60;;
43919;SDS011;29578;51.946;5.874;2022-11-24T02:01:48;2.13;;;0.85;;
43919;SDS011;29578;51.946;5.874;2022-11-24T02:04:17;1.75;;;0.82;;
43919;SDS011;29578;51.946;5.874;2022-11-24T02:06:47;2.75;;;0.70;;
43919;SDS011;29578;51.946;5.874;2022-11-24T02:09:18;1.98;;;0.50;;
43919;SDS011;29578;51.946;5.874;2022-11-24T02:11:47;2.17;;;0.60;;
43919;SDS011;29578;51.946;5.874;2022-11-24T02:14:13;2.95;;;0.60;;
43919;SDS011;29578;51.946;5.874;2022-11-24T02:16:43;1.85;;;0.60;;
43919;SDS011;29578;51.946;5.874;2022-11-24T02:19:20;1.45;;;0.77;;
43919;SDS011;29578;51.946;5.874;2022-11-24T02:25:00;2.78;;;0.80;;
43919;SDS011;29578;51.946;5.874;2022-11-24T02:27:38;3.33;;;1.00;;
43919;SDS011;29578;51.946;5.874;2022-11-24T02:30:04;1.33;;;0.65;;
43919;SDS011;29578;51.946;5.874;2022-11-24T02:32:30;3.47;;;0.80;;
43919;SDS011;29578;51.946;5.874;2022-11-24T02:34:58;2.30;;;0.90;;
43919;SDS011;29578;51.946;5.874;2022-11-24T02:37:28;3.10;;;0.60;;
43919;SDS011;29578;51.946;5.874;2022-11-24T02:39:54;2.85;;;0.80;;
43919;SDS011;29578;51.946;5.874;2022-11-24T02:42:20;3.53;;;0.85;;
43919;SDS011;29578;51.946;5.874;2022-11-24T02:44:48;2.72;;;0.80;;
43919;SDS011;29578;51.946;5.874;2022-11-24T02:47:17;1.57;;;0.60;;
43919;SDS011;29578;51.946;5.874;2022-11-24T02:49:42;2.85;;;0.75;;
43919;SDS011;29578;51.946;5.874;2022-11-24T02:52:08;4.05;;;0.68;;
43919;SDS011;29578;51.946;5.874;2022-11-24T02:54:34;2.85;;;0.70;;
43919;SDS011;29578;51.946;5.874;2022-11-24T02:56:59;1.70;;;0.70;;
43919;SDS011;29578;51.946;5.874;2022-11-24T02:59:25;3.50;;;0.90;;
43919;SDS011;29578;51.946;5.874;2022-11-24T03:01:51;1.73;;;0.60;;
43919;SDS011;29578;51.946;5.874;2022-11-24T03:04:16;2.78;;;0.90;;
43919;SDS011;29578;51.946;5.874;2022-11-24T03:06:42;1.63;;;0.63;;
43919;SDS011;29578;51.946;5.874;2022-11-24T03:09:08;2.67;;;0.77;;
43919;SDS011;29578;51.946;5.874;2022-11-24T03:11:35;4.57;;;1.25;;
43919;SDS011;29578;51.946;5.874;2022-11-24T03:14:01;1.95;;;0.77;;
43919;SDS011;29578;51.946;5.874;2022-11-24T03:16:27;2.47;;;1.10;;
43919;SDS011;29578;51.946;5.874;2022-11-24T03:18:53;3.75;;;0.80;;
43919;SDS011;29578;51.946;5.874;2022-11-24T03:21:18;2.15;;;0.82;;
43919;SDS011;29578;51.946;5.874;2022-11-24T03:23:44;1.60;;;0.82;;
43919;SDS011;29578;51.946;5.874;2022-11-24T03:26:11;2.28;;;0.93;;
43919;SDS011;29578;51.946;5.874;2022-11-24T03:28:39;3.78;;;0.85;;
43919;SDS011;29578;51.946;5.874;2022-11-24T03:31:06;2.08;;;0.70;;
43919;SDS011;29578;51.946;5.874;2022-11-24T03:33:33;1.33;;;0.63;;
43919;SDS011;29578;51.946;5.874;2022-11-24T03:35:59;2.08;;;0.70;;
43919;SDS011;29578;51.946;5.874;2022-11-24T03:38:25;4.18;;;0.57;;
43919;SDS011;29578;51.946;5.874;2022-11-24T03:40:51;1.48;;;0.63;;
43919;SDS011;29578;51.946;5.874;2022-11-24T03:43:18;2.65;;;0.73;;
43919;SDS011;29578;51.946;5.874;2022-11-24T03:45:44;4.75;;;0.88;;
43919;SDS011;29578;51.946;5.874;2022-11-24T03:48:10;1.70;;;0.88;;
43919;SDS011;29578;51.946;5.874;2022-11-24T03:50:36;1.42;;;0.60;;
43919;SDS011;29578;51.946;5.874;2022-11-24T03:53:01;3.08;;;0.80;;
43919;SDS011;29578;51.946;5.874;2022-11-24T03:55:27;2.30;;;0.70;;
43919;SDS011;29578;51.946;5.874;2022-11-24T03:57:53;2.75;;;0.73;;
43919;SDS011;29578;51.946;5.874;2022-11-24T04:00:18;1.77;;;0.70;;
43919;SDS011;29578;51.946;5.874;2022-11-24T04:02:44;2.38;;;0.70;;
43919;SDS011;29578;51.946;5.874;2022-11-24T04:05:10;4.10;;;1.15;;
43919;SDS011;29578;51.946;5.874;2022-11-24T04:07:35;1.50;;;0.80;;
43919;SDS011;29578;51.946;5.874;2022-11-24T04:10:01;3.72;;;0.82;;
43919;SDS011;29578;51.946;5.874;2022-11-24T04:12:27;2.88;;;0.70;;
43919;SDS011;29578;51.946;5.874;2022-11-24T04:15:07;3.85;;;0.93;;
43919;SDS011;29578;51.946;5.874;2022-11-24T04:17:33;4.13;;;0.90;;
43919;SDS011;29578;51.946;5.874;2022-11-24T04:19:59;3.00;;;0.93;;
43919;SDS011;29578;51.946;5.874;2022-11-24T04:22:24;2.53;;;0.90;;
43919;SDS011;29578;51.946;5.874;2022-11-24T04:24:50;2.35;;;0.80;;
43919;SDS011;29578;51.946;5.874;2022-11-24T04:27:16;2.17;;;0.85;;
43919;SDS011;29578;51.946;5.874;2022-11-24T04:29:41;2.30;;;0.80;;
43919;SDS011;29578;51.946;5.874;2022-11-24T04:32:07;2.35;;;0.93;;
43919;SDS011;29578;51.946;5.874;2022-11-24T04:34:33;2.75;;;0.82;;
43919;SDS011;29578;51.946;5.874;2022-11-24T04:36:59;3.13;;;0.90;;
43919;SDS011;29578;51.946;5.874;2022-11-24T04:39:25;2.10;;;0.73;;
43919;SDS011;29578;51.946;5.874;2022-11-24T04:41:50;1.30;;;0.60;;
43919;SDS011;29578;51.946;5.874;2022-11-24T04:44:16;2.83;;;0.73;;
43919;SDS011;29578;51.946;5.874;2022-11-24T04:46:42;1.52;;;0.80;;
43919;SDS011;29578;51.946;5.874;2022-11-24T04:49:07;2.63;;;0.73;;
43919;SDS011;29578;51.946;5.874;2022-11-24T04:51:36;4.32;;;1.00;;
43919;SDS011;29578;51.946;5.874;2022-11-24T04:54:03;3.03;;;0.85;;
43919;SDS011;29578;51.946;5.874;2022-11-24T04:56:29;1.02;;;0.60;;
43919;SDS011;29578;51.946;5.874;2022-11-24T04:58:54;3.65;;;1.00;;
43919;SDS011;29578;51.946;5.874;2022-11-24T05:01:20;1.30;;;0.77;;
43919;SDS011;29578;51.946;5.874;2022-11-24T05:03:46;2.42;;;0.70;;
43919;SDS011;29578;51.946;5.874;2022-11-24T05:06:11;3.70;;;0.85;;
43919;SDS011;29578;51.946;5.874;2022-11-24T05:08:37;4.72;;;1.10;;
43919;SDS011;29578;51.946;5.874;2022-11-24T05:11:07;2.42;;;0.70;;
43919;SDS011;29578;51.946;5.874;2022-11-24T05:13:33;1.55;;;0.82;;
43919;SDS011;29578;51.946;5.874;2022-11-24T05:15:59;4.07;;;0.95;;
43919;SDS011;29578;51.946;5.874;2022-11-24T05:18:25;3.17;;;0.80;;
43919;SDS011;29578;51.946;5.874;2022-11-24T05:20:51;1.73;;;0.77;;
43919;SDS011;29578;51.946;5.874;2022-11-24T05:23:16;2.40;;;0.85;;
43919;SDS011;29578;51.946;5.874;2022-11-24T05:25:42;1.75;;;0.77;;
43919;SDS011;29578;51.946;5.874;2022-11-24T05:28:07;1.25;;;0.60;;
43919;SDS011;29578;51.946;5.874;2022-11-24T05:30:36;3.80;;;0.80;;
43919;SDS011;29578;51.946;5.874;2022-11-24T05:33:03;2.35;;;0.70;;
43919;SDS011;29578;51.946;5.874;2022-11-24T05:35:30;2.90;;;0.65;;
43919;SDS011;29578;51.946;5.874;2022-11-24T05:37:56;2.70;;;0.50;;
43919;SDS011;29578;51.946;5.874;2022-11-24T05:40:22;1.70;;;0.60;;
43919;SDS011;29578;51.946;5.874;2022-11-24T05:42:48;1.55;;;0.70;;
43919;SDS011;29578;51.946;5.874;2022-11-24T05:45:17;1.00;;;0.50;;
43919;SDS011;29578;51.946;5.874;2022-11-24T05:47:45;0.63;;;0.35;;
43919;SDS011;29578;51.946;5.874;2022-11-24T05:50:11;0.57;;;0.40;;
43919;SDS011;29578;51.946;5.874;2022-11-24T05:52:38;1.52;;;0.60;;
43919;SDS011;29578;51.946;5.874;2022-11-24T05:55:05;0.50;;;0.45;;
43919;SDS011;29578;51.946;5.874;2022-11-24T05:57:31;1.15;;;0.40;;
43919;SDS011;29578;51.946;5.874;2022-11-24T05:59:57;0.90;;;0.52;;
43919;SDS011;29578;51.946;5.874;2022-11-24T06:02:23;0.90;;;0.50;;
43919;SDS011;29578;51.946;5.874;2022-11-24T06:04:48;0.95;;;0.52;;
43919;SDS011;29578;51.946;5.874;2022-11-24T06:07:14;1.83;;;0.60;;
43919;SDS011;29578;51.946;5.874;2022-11-24T06:09:40;1.00;;;0.22;;
43919;SDS011;29578;51.946;5.874;2022-11-24T06:12:07;1.48;;;0.50;;
43919;SDS011;29578;51.946;5.874;2022-11-24T06:14:34;2.10;;;0.68;;
43919;SDS011;29578;51.946;5.874;2022-11-24T06:17:00;0.95;;;0.40;;
43919;SDS011;29578;51.946;5.874;2022-11-24T06:19:26;0.70;;;0.40;;
43919;SDS011;29578;51.946;5.874;2022-11-24T06:21:52;0.50;;;0.28;;
43919;SDS011;29578;51.946;5.874;2022-11-24T06:24:18;1.83;;;0.40;;
43919;SDS011;29578;51.946;5.874;2022-11-24T06:26:43;1.85;;;0.40;;
43919;SDS011;29578;51.946;5.874;2022-11-24T06:29:09;0.30;;;0.30;;
43919;SDS011;29578;51.946;5.874;2022-11-24T06:31:35;0.77;;;0.38;;
43919;SDS011;29578;51.946;5.874;2022-11-24T06:34:01;0.77;;;0.28;;
43919;SDS011;29578;51.946;5.874;2022-11-24T06:36:29;0.60;;;0.38;;
43919;SDS011;29578;51.946;5.874;2022-11-24T06:42:49;0.80;;;0.50;;
43919;SDS011;29578;51.946;5.874;2022-11-24T06:45:16;0.40;;;0.40;;
43919;SDS011;29578;51.946;5.874;2022-11-24T06:47:41;0.20;;;0.20;;
43919;SDS011;29578;51.946;5.874;2022-11-24T06:50:08;0.52;;;0.30;;
43919;SDS011;29578;51.946;5.874;2022-11-24T06:52:34;0.80;;;0.50;;
43919;SDS011;29578;51.946;5.874;2022-11-24T06:55:00;0.20;;;0.20;;
43919;SDS011;29578;51.946;5.874;2022-11-24T06:57:26;0.73;;;0.30;;
43919;SDS011;29578;51.946;5.874;2022-11-24T06:59:55;2.47;;;0.30;;
43919;SDS011;29578;51.946;5.874;2022-11-24T07:02:22;0.30;;;0.30;;
43919;SDS011;29578;51.946;5.874;2022-11-24T07:04:48;2.13;;;0.40;;
43919;SDS011;29578;51.946;5.874;2022-11-24T07:07:13;1.77;;;0.30;;
43919;SDS011;29578;51.946;5.874;2022-11-24T07:09:39;1.48;;;0.40;;
43919;SDS011;29578;51.946;5.874;2022-11-24T07:12:05;0.63;;;0.40;;
43919;SDS011;29578;51.946;5.874;2022-11-24T07:14:31;0.52;;;0.35;;
43919;SDS011;29578;51.946;5.874;2022-11-24T07:16:56;0.55;;;0.40;;
43919;SDS011;29578;51.946;5.874;2022-11-24T07:19:22;0.80;;;0.45;;
43919;SDS011;29578;51.946;5.874;2022-11-24T07:21:48;0.65;;;0.30;;
43919;SDS011;29578;51.946;5.874;2022-11-24T07:24:13;0.45;;;0.45;;
43919;SDS011;29578;51.946;5.874;2022-11-24T07:29:56;0.88;;;0.50;;
43919;SDS011;29578;51.946;5.874;2022-11-24T07:32:22;0.30;;;0.30;;
43919;SDS011;29578;51.946;5.874;2022-11-24T07:34:48;0.40;;;0.32;;
43919;SDS011;29578;51.946;5.874;2022-11-24T07:37:13;1.58;;;0.70;;
43919;SDS011;29578;51.946;5.874;2022-11-24T07:39:42;1.02;;;0.70;;
43919;SDS011;29578;51.946;5.874;2022-11-24T07:42:07;2.05;;;0.68;;
43919;SDS011;29578;51.946;5.874;2022-11-24T07:44:35;1.88;;;0.75;;
43919;SDS011;29578;51.946;5.874;2022-11-24T07:47:01;0.90;;;0.57;;
43919;SDS011;29578;51.946;5.874;2022-11-24T07:49:26;1.05;;;0.70;;
43919;SDS011;29578;51.946;5.874;2022-11-24T07:51:54;0.80;;;0.60;;
43919;SDS011;29578;51.946;5.874;2022-11-24T07:54:20;1.55;;;0.65;;
43919;SDS011;29578;51.946;5.874;2022-11-24T07:56:47;1.75;;;0.80;;
43919;SDS011;29578;51.946;5.874;2022-11-24T07:59:13;1.25;;;0.80;;
43919;SDS011;29578;51.946;5.874;2022-11-24T08:01:39;1.42;;;0.80;;
43919;SDS011;29578;51.946;5.874;2022-11-24T08:04:04;2.00;;;0.80;;
43919;SDS011;29578;51.946;5.874;2022-11-24T08:06:31;0.95;;;0.70;;
43919;SDS011;29578;51.946;5.874;2022-11-24T08:08:56;1.15;;;0.70;;
43919;SDS011;29578;51.946;5.874;2022-11-24T08:11:22;1.73;;;0.65;;
43919;SDS011;29578;51.946;5.874;2022-11-24T08:13:49;2.55;;;1.02;;
43919;SDS011;29578;51.946;5.874;2022-11-24T08:16:15;3.08;;;1.05;;
43919;SDS011;29578;51.946;5.874;2022-11-24T08:18:42;1.02;;;0.80;;
43919;SDS011;29578;51.946;5.874;2022-11-24T08:21:10;2.22;;;0.90;;
43919;SDS011;29578;51.946;5.874;2022-11-24T08:23:37;2.20;;;0.90;;
43919;SDS011;29578;51.946;5.874;2022-11-24T08:26:04;1.40;;;0.80;;
43919;SDS011;29578;51.946;5.874;2022-11-24T08:28:33;3.28;;;1.00;;
43919;SDS011;29578;51.946;5.874;2022-11-24T08:31:01;1.23;;;0.63;;
43919;SDS011;29578;51.946;5.874;2022-11-24T08:33:28;0.85;;;0.70;;
43919;SDS011;29578;51.946;5.874;2022-11-24T08:35:54;0.50;;;0.50;;
43919;SDS011;29578;51.946;5.874;2022-11-24T08:38:20;1.17;;;0.60;;
43919;SDS011;29578;51.946;5.874;2022-11-24T08:40:45;1.50;;;0.68;;
43919;SDS011;29578;51.946;5.874;2022-11-24T08:43:11;1.58;;;0.65;;
43919;SDS011;29578;51.946;5.874;2022-11-24T08:45:37;0.80;;;0.60;;
43919;SDS011;29578;51.946;5.874;2022-11-24T08:48:02;0.70;;;0.60;;
43919;SDS011;29578;51.946;5.874;2022-11-24T08:50:28;1.30;;;0.60;;
43919;SDS011;29578;51.946;5.874;2022-11-24T08:52:54;0.80;;;0.57;;
43919;SDS011;29578;51.946;5.874;2022-11-24T08:55:19;0.80;;;0.55;;
43919;SDS011;29578;51.946;5.874;2022-11-24T08:57:45;1.80;;;0.60;;
43919;SDS011;29578;51.946;5.874;2022-11-24T09:00:11;1.63;;;0.70;;
43919;SDS011;29578;51.946;5.874;2022-11-24T09:02:37;0.82;;;0.50;;
43919;SDS011;29578;51.946;5.874;2022-11-24T09:05:03;0.50;;;0.50;;
43919;SDS011;29578;51.946;5.874;2022-11-24T09:07:29;0.90;;;0.60;;
43919;SDS011;29578;51.946;5.874;2022-11-24T09:09:55;2.28;;;0.60;;
43919;SDS011;29578;51.946;5.874;2022-11-24T09:12:20;0.80;;;0.60;;
43919;SDS011;29578;51.946;5.874;2022-11-24T09:14:46;0.60;;;0.50;;
43919;SDS011;29578;51.946;5.874;2022-11-24T09:17:12;0.80;;;0.60;;
43919;SDS011;29578;51.946;5.874;2022-11-24T09:19:37;1.52;;;0.60;;
43919;SDS011;29578;51.946;5.874;2022-11-24T09:22:03;1.77;;;0.60;;
43919;SDS011;29578;51.946;5.874;2022-11-24T09:24:29;1.58;;;0.75;;
43919;SDS011;29578;51.946;5.874;2022-11-24T09:26:54;0.38;;;0.38;;
43919;SDS011;29578;51.946;5.874;2022-11-24T09:29:20;1.02;;;0.50;;
43919;SDS011;29578;51.946;5.874;2022-11-24T09:31:46;1.42;;;0.70;;
43919;SDS011;29578;51.946;5.874;2022-11-24T09:34:12;1.05;;;0.70;;
43919;SDS011;29578;51.946;5.874;2022-11-24T09:36:39;0.70;;;0.52;;
43919;SDS011;29578;51.946;5.874;2022-11-24T09:39:05;1.00;;;0.43;;
43919;SDS011;29578;51.946;5.874;2022-11-24T09:41:34;0.60;;;0.40;;
43919;SDS011;29578;51.946;5.874;2022-11-24T09:44:28;0.88;;;0.38;;
43919;SDS011;29578;51.946;5.874;2022-11-24T09:47:15;0.30;;;0.30;;
43919;SDS011;29578;51.946;5.874;2022-11-24T09:49:49;0.70;;;0.43;;
43919;SDS011;29578;51.946;5.874;2022-11-24T09:52:31;0.80;;;0.47;;
43919;SDS011;29578;51.946;5.874;2022-11-24T09:55:13;0.63;;;0.40;;
43919;SDS011;29578;51.946;5.874;2022-11-24T09:57:49;0.25;;;0.25;;
43919;SDS011;29578;51.946;5.874;2022-11-24T10:00:20;0.30;;;0.30;;
43919;SDS011;29578;51.946;5.874;2022-11-24T10:02:56;1.55;;;0.68;;
43919;SDS011;29578;51.946;5.874;2022-11-24T10:05:22;1.48;;;0.57;;
43919;SDS011;29578;51.946;5.874;2022-11-24T10:08:20;0.40;;;0.40;;
43919;SDS011;29578;51.946;5.874;2022-11-24T10:10:56;0.30;;;0.30;;
43919;SDS011;29578;51.946;5.874;2022-11-24T10:13:29;0.82;;;0.40;;
43919;SDS011;29578;51.946;5.874;2022-11-24T10:16:32;0.85;;;0.40;;
43919;SDS011;29578;51.946;5.874;2022-11-24T10:19:21;1.15;;;0.47;;
43919;SDS011;29578;51.946;5.874;2022-11-24T10:25:02;0.65;;;0.30;;
43919;SDS011;29578;51.946;5.874;2022-11-24T10:27:48;0.70;;;0.50;;
43919;SDS011;29578;51.946;5.874;2022-11-24T10:30:21;0.55;;;0.40;;
43919;SDS011;29578;51.946;5.874;2022-11-24T10:32:48;0.43;;;0.30;;
43919;SDS011;29578;51.946;5.874;2022-11-24T10:35:22;1.25;;;0.52;;
43919;SDS011;29578;51.946;5.874;2022-11-24T10:38:05;0.73;;;0.40;;
43919;SDS011;29578;51.946;5.874;2022-11-24T10:40:52;1.10;;;0.47;;
43919;SDS011;29578;51.946;5.874;2022-11-24T10:43:24;0.55;;;0.40;;
43919;SDS011;29578;51.946;5.874;2022-11-24T10:45:51;1.63;;;0.75;;
43919;SDS011;29578;51.946;5.874;2022-11-24T10:48:21;1.13;;;0.50;;
43919;SDS011;29578;51.946;5.874;2022-11-24T10:50:51;2.05;;;0.50;;
43919;SDS011;29578;51.946;5.874;2022-11-24T10:53:25;0.88;;;0.40;;
43919;SDS011;29578;51.946;5.874;2022-11-24T10:55:58;1.52;;;0.40;;
43919;SDS011;29578;51.946;5.874;2022-11-24T10:58:27;1.17;;;0.57;;
43919;SDS011;29578;51.946;5.874;2022-11-24T11:00:58;1.98;;;0.55;;
43919;SDS011;29578;51.946;5.874;2022-11-24T11:05:59;1.13;;;0.47;;
43919;SDS011;29578;51.946;5.874;2022-11-24T11:08:35;4.13;;;0.80;;
43919;SDS011;29578;51.946;5.874;2022-11-24T11:13:57;0.98;;;0.40;;
43919;SDS011;29578;51.946;5.874;2022-11-24T11:16:53;1.00;;;0.50;;
43919;SDS011;29578;51.946;5.874;2022-11-24T11:19:48;1.05;;;0.50;;
43919;SDS011;29578;51.946;5.874;2022-11-24T11:22:24;1.48;;;0.50;;
43919;SDS011;29578;51.946;5.874;2022-11-24T11:27:43;2.28;;;0.60;;
43919;SDS011;29578;51.946;5.874;2022-11-24T11:30:24;3.17;;;0.68;;
43919;SDS011;29578;51.946;5.874;2022-11-24T11:32:55;2.92;;;0.80;;
43919;SDS011;29578;51.946;5.874;2022-11-24T11:35:23;3.15;;;0.77;;
43919;SDS011;29578;51.946;5.874;2022-11-24T11:37:51;1.95;;;0.77;;
43919;SDS011;29578;51.946;5.874;2022-11-24T11:40:21;1.38;;;0.50;;
43919;SDS011;29578;51.946;5.874;2022-11-24T11:45:55;1.67;;;0.57;;
43919;SDS011;29578;51.946;5.874;2022-11-24T11:48:26;0.68;;;0.40;;
43919;SDS011;29578;51.946;5.874;2022-11-24T11:50:59;0.70;;;0.30;;
43919;SDS011;29578;51.946;5.874;2022-11-24T11:53:49;1.58;;;0.60;;
43919;SDS011;29578;51.946;5.874;2022-11-24T11:56:27;0.98;;;0.30;;
43919;SDS011;29578;51.946;5.874;2022-11-24T11:58:58;1.67;;;0.63;;
43919;SDS011;29578;51.946;5.874;2022-11-24T12:07:48;0.98;;;0.52;;
43919;SDS011;29578;51.946;5.874;2022-11-24T12:10:32;1.50;;;0.47;;
43919;SDS011;29578;51.946;5.874;2022-11-24T12:13:40;2.78;;;0.45;;
43919;SDS011;29578;51.946;5.874;2022-11-24T12:16:26;1.70;;;0.80;;
43919;SDS011;29578;51.946;5.874;2022-11-24T12:19:20;1.70;;;0.70;;
43919;SDS011;29578;51.946;5.874;2022-11-24T12:24:47;1.60;;;0.60;;
43919;SDS011;29578;51.946;5.874;2022-11-24T12:27:40;2.22;;;0.68;;
43919;SDS011;29578;51.946;5.874;2022-11-24T12:30:34;3.10;;;0.80;;
43919;SDS011;29578;51.946;5.874;2022-11-24T12:33:10;1.38;;;0.45;;
43919;SDS011;29578;51.946;5.874;2022-11-24T12:35:47;2.75;;;0.85;;
43919;SDS011;29578;51.946;5.874;2022-11-24T12:38:23;1.45;;;0.50;;
43919;SDS011;29578;51.946;5.874;2022-11-24T12:41:05;1.13;;;0.50;;
43919;SDS011;29578;51.946;5.874;2022-11-24T12:43:50;3.72;;;0.75;;
43919;SDS011;29578;51.946;5.874;2022-11-24T12:46:20;1.90;;;0.80;;
43919;SDS011;29578;51.946;5.874;2022-11-24T12:54:50;3.53;;;0.93;;
43919;SDS011;29578;51.946;5.874;2022-11-24T12:57:23;2.35;;;0.73;;
43919;SDS011;29578;51.946;5.874;2022-11-24T13:00:15;2.13;;;0.90;;
43919;SDS011;29578;51.946;5.874;2022-11-24T13:02:53;1.77;;;0.80;;
43919;SDS011;29578;51.946;5.874;2022-11-24T13:08:24;0.93;;;0.60;;
43919;SDS011;29578;51.946;5.874;2022-11-24T13:10:52;1.55;;;0.88;;
43919;SDS011;29578;51.946;5.874;2022-11-24T13:13:18;0.90;;;0.65;;
43919;SDS011;29578;51.946;5.874;2022-11-24T13:16:01;2.42;;;0.70;;
43919;SDS011;29578;51.946;5.874;2022-11-24T13:18:43;1.38;;;0.50;;
43919;SDS011;29578;51.946;5.874;2022-11-24T13:24:30;1.60;;;0.40;;
43919;SDS011;29578;51.946;5.874;2022-11-24T13:27:25;1.98;;;0.77;;
43919;SDS011;29578;51.946;5.874;2022-11-24T13:29:52;0.77;;;0.40;;
43919;SDS011;29578;51.946;5.874;2022-11-24T13:35:13;2.53;;;0.80;;
43919;SDS011;29578;51.946;5.874;2022-11-24T13:37:45;1.30;;;0.50;;
43919;SDS011;29578;51.946;5.874;2022-11-24T13:40:37;0.73;;;0.43;;
43919;SDS011;29578;51.946;5.874;2022-11-24T13:43:19;1.75;;;0.80;;
43919;SDS011;29578;51.946;5.874;2022-11-24T13:51:21;2.47;;;0.65;;
43919;SDS011;29578;51.946;5.874;2022-11-24T13:53:47;2.17;;;0.60;;
43919;SDS011;29578;51.946;5.874;2022-11-24T13:58:52;2.65;;;0.77;;
43919;SDS011;29578;51.946;5.874;2022-11-24T14:01:29;2.80;;;0.68;;
43919;SDS011;29578;51.946;5.874;2022-11-24T14:04:20;1.42;;;0.50;;
43919;SDS011;29578;51.946;5.874;2022-11-24T14:06:56;1.50;;;0.60;;
43919;SDS011;29578;51.946;5.874;2022-11-24T14:09:27;2.63;;;0.70;;
43919;SDS011;29578;51.946;5.874;2022-11-24T14:12:09;1.10;;;0.50;;
43919;SDS011;29578;51.946;5.874;2022-11-24T14:14:38;0.97;;;0.50;;
43919;SDS011;29578;51.946;5.874;2022-11-24T14:17:06;1.88;;;0.63;;
43919;SDS011;29578;51.946;5.874;2022-11-24T14:19:39;0.50;;;0.40;;
43919;SDS011;29578;51.946;5.874;2022-11-24T14:22:10;1.52;;;0.40;;
43919;SDS011;29578;51.946;5.874;2022-11-24T14:24:58;1.52;;;0.65;;
43919;SDS011;29578;51.946;5.874;2022-11-24T14:27:26;2.10;;;0.60;;
43919;SDS011;29578;51.946;5.874;2022-11-24T14:29:58;1.27;;;0.57;;
43919;SDS011;29578;51.946;5.874;2022-11-24T14:32:25;1.75;;;0.50;;
43919;SDS011;29578;51.946;5.874;2022-11-24T14:34:51;0.68;;;0.43;;
43919;SDS011;29578;51.946;5.874;2022-11-24T14:37:18;2.08;;;0.68;;
43919;SDS011;29578;51.946;5.874;2022-11-24T14:39:44;1.83;;;0.57;;
43919;SDS011;29578;51.946;5.874;2022-11-24T14:44:53;0.77;;;0.40;;
43919;SDS011;29578;51.946;5.874;2022-11-24T14:47:28;0.30;;;0.28;;
43919;SDS011;29578;51.946;5.874;2022-11-24T14:49:56;1.30;;;0.40;;
43919;SDS011;29578;51.946;5.874;2022-11-24T14:52:29;1.45;;;0.40;;
43919;SDS011;29578;51.946;5.874;2022-11-24T14:54:56;0.95;;;0.30;;
43919;SDS011;29578;51.946;5.874;2022-11-24T14:57:33;0.32;;;0.30;;
43919;SDS011;29578;51.946;5.874;2022-11-24T15:02:46;0.77;;;0.30;;
43919;SDS011;29578;51.946;5.874;2022-11-24T15:05:18;1.25;;;0.32;;
43919;SDS011;29578;51.946;5.874;2022-11-24T15:07:50;0.45;;;0.30;;
43919;SDS011;29578;51.946;5.874;2022-11-24T15:10:34;0.30;;;0.30;;
43919;SDS011;29578;51.946;5.874;2022-11-24T15:13:14;0.93;;;0.32;;
43919;SDS011;29578;51.946;5.874;2022-11-24T15:15:55;0.30;;;0.30;;
43919;SDS011;29578;51.946;5.874;2022-11-24T15:21:15;0.20;;;0.20;;
43919;SDS011;29578;51.946;5.874;2022-11-24T15:24:16;0.40;;;0.20;;
43919;SDS011;29578;51.946;5.874;2022-11-24T15:26:48;0.35;;;0.35;;
43919;SDS011;29578;51.946;5.874;2022-11-24T15:29:37;1.50;;;0.47;;
43919;SDS011;29578;51.946;5.874;2022-11-24T15:32:27;1.98;;;0.47;;
43919;SDS011;29578;51.946;5.874;2022-11-24T15:35:01;0.88;;;0.30;;
43919;SDS011;29578;51.946;5.874;2022-11-24T15:37:56;0.50;;;0.40;;
43919;SDS011;29578;51.946;5.874;2022-11-24T15:40:27;0.60;;;0.20;;
43919;SDS011;29578;51.946;5.874;2022-11-24T15:46:12;0.28;;;0.28;;
43919;SDS011;29578;51.946;5.874;2022-11-24T15:54:33;0.50;;;0.30;;
43919;SDS011;29578;51.946;5.874;2022-11-24T15:56:58;0.22;;;0.22;;
43919;SDS011;29578;51.946;5.874;2022-11-24T15:59:24;0.40;;;0.30;;
43919;SDS011;29578;51.946;5.874;2022-11-24T16:01:50;0.73;;;0.30;;
43919;SDS011;29578;51.946;5.874;2022-11-24T16:06:49;0.40;;;0.30;;
43919;SDS011;29578;51.946;5.874;2022-11-24T16:09:38;0.43;;;0.20;;
43919;SDS011;29578;51.946;5.874;2022-11-24T16:12:49;0.68;;;0.32;;
43919;SDS011;29578;51.946;5.874;2022-11-24T16:15:23;0.28;;;0.22;;
43919;SDS011;29578;51.946;5.874;2022-11-24T16:17:52;0.20;;;0.20;;
43919;SDS011;29578;51.946;5.874;2022-11-24T16:20:18;0.20;;;0.20;;
43919;SDS011;29578;51.946;5.874;2022-11-24T16:22:48;0.30;;;0.20;;
43919;SDS011;29578;51.946;5.874;2022-11-24T16:25:22;0.30;;;0.30;;